Time;durP1;ratioP1;P1;durP2;ratioP2;P2;SDS_P1;SDS_P2;PMS_P1;PMS_P2;Temp;Humidity;BMP_temperature;BMP_pressure;BME280_temperature;BME280_humidity;BME280_pressure;Samples;Min_cycle;Max_cycle;Signal;HPM_P1;HPM_P2
2021/11/17 02:26:44;;;;;;;;;;;18.20;74.60;;;;;;4934433;29;19934;-60
2021/11/17 02:29:11;;;;;;;;;;;18.20;74.50;;;;;;4934760;29;19934;-59
2021/11/17 02:31:56;;;;;;;;;;;18.20;74.60;;;;;;4934353;29;19927;-61
2021/11/17 02:34:29;;;;;;;;;;;18.20;74.60;;;;;;5008142;28;19971;-59
2021/11/17 02:37:17;;;;;;;;;;;18.20;74.60;;;;;;5055895;28;19932;-59
2021/11/17 02:39:54;;;;;;;;;;;18.20;74.60;;;;;;5073534;28;20395;-61
2021/11/17 02:42:21;;;;;;;;;;;18.20;74.50;;;;;;5073553;28;19939;-59
2021/11/17 02:44:54;;;;;;;;;;;18.20;74.50;;;;;;5073466;28;19925;-57
2021/11/17 02:47:21;;;;;;;;;;;18.20;74.50;;;;;;5073349;28;19978;-59
2021/11/17 02:49:51;;;;;;;;;;;18.20;74.50;;;;;;5073393;28;19931;-60
2021/11/17 02:52:25;;;;;;;;;;;18.20;74.50;;;;;;5072982;28;19935;-60
2021/11/17 02:54:52;;;;;;;;;;;18.20;74.50;;;;;;5073255;28;19924;-61
2021/11/17 02:57:42;;;;;;;;;;;18.20;74.50;;;;;;5073172;28;19925;-60
2021/11/17 03:00:12;;;;;;;;;;;18.20;74.50;;;;;;5011674;28;19925;-59
2021/11/17 03:02:59;;;;;;;;;;;18.20;75.20;;;;;;5012010;28;19926;-60
2021/11/17 03:05:26;;;;;;;;;;;18.20;74.50;;;;;;4995008;28;20043;-60
2021/11/17 03:07:59;;;;;;;;;;;18.20;74.50;;;;;;4994327;28;19983;-58
2021/11/17 03:10:28;;;;;;;;;;;18.20;74.50;;;;;;5011695;28;19925;-60
2021/11/17 03:12:57;;;;;;;;;;;18.20;74.50;;;;;;5011482;28;19997;-61
2021/11/17 03:15:24;;;;;;;;;;;18.20;74.50;;;;;;5011460;28;19929;-60
2021/11/17 03:17:57;;;;;;;;;;;18.20;74.50;;;;;;5013272;28;19925;-59
2021/11/17 03:20:27;;;;;;;;;;;18.20;74.50;;;;;;5015087;28;19929;-61
2021/11/17 03:23:12;;;;;;;;;;;18.20;74.50;;;;;;5013755;28;20333;-59
2021/11/17 03:25:45;;;;;;;;;;;18.20;74.40;;;;;;5015023;28;19925;-59
2021/11/17 03:28:19;;;;;;;;;;;18.20;74.50;;;;;;5014846;28;20393;-61
2021/11/17 03:30:57;;;;;;;;;;;18.20;74.40;;;;;;4998881;28;19925;-61
2021/11/17 03:33:40;;;;;;;;;;;18.20;74.40;;;;;;5015063;28;19932;-62
2021/11/17 03:36:23;;;;;;;;;;;18.20;74.50;;;;;;5018180;28;19926;-59
2021/11/17 03:38:56;;;;;;;;;;;18.20;74.40;;;;;;5075986;28;20010;-61
2021/11/17 03:41:23;;;;;;;;;;;18.20;74.40;;;;;;5076770;28;19929;-62
2021/11/17 03:44:07;;;;;;;;;;;18.20;74.40;;;;;;5076430;28;19975;-60
2021/11/17 03:46:37;;;;;;;;;;;18.20;74.40;;;;;;5076690;28;20294;-62
2021/11/17 03:49:12;;;;;;;;;;;18.20;74.50;;;;;;5076265;28;19928;-61
2021/11/17 03:51:58;;;;;;;;;;;18.20;74.40;;;;;;5076619;28;19925;-61
2021/11/17 03:54:49;;;;;;;;;;;18.20;74.40;;;;;;5075440;28;19928;-59
2021/11/17 03:57:25;;;;;;;;;;;18.20;74.40;;;;;;5076341;28;20345;-57
2021/11/17 04:00:11;;;;;;;;;;;18.20;74.40;;;;;;5076042;28;19932;-59
2021/11/17 04:02:57;;;;;;;;;;;18.20;74.40;;;;;;5076400;28;19929;-59
2021/11/17 04:05:27;;;;;;;;;;;18.20;74.40;;;;;;5076085;28;19978;-59
2021/11/17 04:08:10;;;;;;;;;;;18.20;74.40;;;;;;5075375;28;20402;-61
2021/11/17 04:10:55;;;;;;;;;;;18.20;74.40;;;;;;5075942;28;19978;-60
2021/11/17 04:14:01;;;;;;;;;;;18.20;74.40;;;;;;5075875;28;19925;-61
2021/11/17 04:16:28;;;;;;;;;;;18.20;74.40;;;;;;5014050;28;19925;-61
2021/11/17 04:19:05;;;;;;;;;;;18.20;74.40;;;;;;5014000;28;19926;-59
2021/11/17 04:21:44;;;;;;;;;;;18.20;74.40;;;;;;4997900;28;19980;-60
2021/11/17 04:24:49;;;;;;;;;;;18.20;74.40;;;;;;5012855;28;20420;-60
2021/11/17 04:27:25;;;;;;;;;;;18.20;74.40;;;;;;4974841;28;19930;-61
2021/11/17 04:30:10;;;;;;;;;;;18.20;74.40;;;;;;4973950;28;19926;-60
2021/11/17 04:32:56;;;;;;;;;;;18.20;74.30;;;;;;4974704;28;19948;-60
2021/11/17 04:35:32;;;;;;;;;;;18.20;74.30;;;;;;4974898;28;19926;-56
2021/11/17 04:38:07;;;;;;;;;;;18.20;74.40;;;;;;4974737;28;19933;-60
2021/11/17 04:40:52;;;;;;;;;;;18.20;74.30;;;;;;4993575;28;19930;-60
2021/11/17 04:43:29;;;;;;;;;;;18.20;74.40;;;;;;4993950;28;20433;-60
2021/11/17 04:46:07;;;;;;;;;;;18.20;74.30;;;;;;4994370;28;19932;-61
2021/11/17 04:48:41;;;;;;;;;;;18.20;74.30;;;;;;5033200;28;19964;-59
2021/11/17 04:51:07;;;;;;;;;;;18.20;74.30;;;;;;5033209;28;19925;-60
2021/11/17 04:53:43;;;;;;;;;;;18.20;74.30;;;;;;5031374;28;19933;-59
2021/11/17 04:56:19;;;;;;;;;;;18.20;74.30;;;;;;5033133;28;19948;-59
2021/11/17 04:58:58;;;;;;;;;;;18.20;74.30;;;;;;5050736;28;19925;-61
2021/11/17 05:01:25;;;;;;;;;;;18.20;74.30;;;;;;5054846;28;19929;-60
2021/11/17 05:03:56;;;;;;;;;;;18.20;74.30;;;;;;5054888;28;20344;-59
2021/11/17 05:06:23;;;;;;;;;;;18.20;74.30;;;;;;5037551;28;19925;-58
2021/11/17 05:09:02;;;;;;;;;;;18.20;74.30;;;;;;5057126;28;19928;-59
2021/11/17 05:11:29;;;;;;;;;;;18.20;74.30;;;;;;5074705;28;20011;-59
2021/11/17 05:14:02;;;;;;;;;;;18.20;74.30;;;;;;5074640;28;19924;-60
2021/11/17 05:16:39;;;;;;;;;;;18.20;74.30;;;;;;5074590;28;19925;-58
2021/11/17 05:19:12;;;;;;;;;;;18.20;74.30;;;;;;5056808;28;19932;-60
2021/11/17 05:21:45;;;;;;;;;;;18.20;74.30;;;;;;5074649;28;19924;-59
2021/11/17 05:24:22;;;;;;;;;;;18.20;74.20;;;;;;5073096;28;19928;-62
2021/11/17 05:26:55;;;;;;;;;;;18.20;74.30;;;;;;5074407;28;19924;-61
2021/11/17 05:29:45;;;;;;;;;;;18.20;74.20;;;;;;5074523;28;19925;-58
2021/11/17 05:32:15;;;;;;;;;;;18.20;74.20;;;;;;5012999;28;20008;-60
2021/11/17 05:35:00;;;;;;;;;;;18.20;74.20;;;;;;5012901;28;19932;-60
2021/11/17 05:37:31;;;;;;;;;;;18.20;74.20;;;;;;5012805;28;20472;-59
2021/11/17 05:40:00;;;;;;;;;;;18.20;74.30;;;;;;5011342;28;20016;-57
2021/11/17 05:42:30;;;;;;;;;;;18.20;74.20;;;;;;5012514;28;19926;-60
2021/11/17 05:45:01;;;;;;;;;;;18.20;74.20;;;;;;5012768;28;19926;-59
2021/11/17 05:47:28;;;;;;;;;;;18.20;74.20;;;;;;5012363;28;19930;-61
2021/11/17 05:50:24;;;;;;;;;;;18.20;74.20;;;;;;5012572;28;19929;-60
2021/11/17 05:52:51;;;;;;;;;;;18.20;74.20;;;;;;5003985;28;19940;-60
2021/11/17 05:55:21;;;;;;;;;;;18.20;74.20;;;;;;5011075;28;19960;-60
2021/11/17 05:57:51;;;;;;;;;;;18.20;74.20;;;;;;5012549;28;19933;-58
2021/11/17 06:00:33;;;;;;;;;;;18.20;74.20;;;;;;5012222;28;19926;-60
2021/11/17 06:03:03;;;;;;;;;;;18.20;74.20;;;;;;5013134;28;19969;-57
2021/11/17 06:05:48;;;;;;;;;;;18.20;74.20;;;;;;5012190;28;19972;-59
2021/11/17 06:08:34;;;;;;;;;;;18.20;74.20;;;;;;5017401;28;19925;-60
2021/11/17 06:11:02;;;;;;;;;;;18.20;74.20;;;;;;5054781;28;19970;-60
2021/11/17 06:13:30;;;;;;;;;;;18.20;74.20;;;;;;5074072;28;19924;-59
2021/11/17 06:15:57;;;;;;;;;;;18.20;74.20;;;;;;5073635;28;19924;-61
2021/11/17 06:18:27;;;;;;;;;;;18.20;74.20;;;;;;5073704;28;19929;-58
2021/11/17 06:20:54;;;;;;;;;;;18.20;74.20;;;;;;5073980;28;19928;-58
2021/11/17 06:23:28;;;;;;;;;;;18.20;74.20;;;;;;5073649;28;20038;-59
2021/11/17 06:25:56;;;;;;;;;;;18.20;74.20;;;;;;5072955;28;19935;-60
2021/11/17 06:28:24;;;;;;;;;;;18.20;74.20;;;;;;5073825;28;19931;-60
2021/11/17 06:30:52;;;;;;;;;;;18.20;74.20;;;;;;5073408;28;19925;-61
2021/11/17 06:33:20;;;;;;;;;;;18.20;74.20;;;;;;5073799;28;19931;-59
2021/11/17 06:35:47;;;;;;;;;;;18.20;74.20;;;;;;5056357;28;19925;-56
2021/11/17 06:38:17;;;;;;;;;;;18.20;74.20;;;;;;5073282;28;20394;-60
2021/11/17 06:40:45;;;;;;;;;;;18.20;74.20;;;;;;5055267;28;20019;-61
2021/11/17 06:43:13;;;;;;;;;;;18.20;74.20;;;;;;5073337;28;19928;-59
2021/11/17 06:45:52;;;;;;;;;;;18.20;74.20;;;;;;5073600;28;20295;-59
2021/11/17 06:48:21;;;;;;;;;;;18.20;74.10;;;;;;5055828;28;19925;-61
2021/11/17 06:50:49;;;;;;;;;;;18.20;74.10;;;;;;5056402;28;19972;-61
2021/11/17 06:53:16;;;;;;;;;;;18.20;74.10;;;;;;5075982;28;19924;-59
2021/11/17 06:55:44;;;;;;;;;;;18.20;74.10;;;;;;5076524;28;19924;-59
2021/11/17 06:58:11;;;;;;;;;;;18.20;74.10;;;;;;5077604;28;20296;-56
2021/11/17 07:00:40;;;;;;;;;;;18.20;74.10;;;;;;5059453;28;20386;-57
2021/11/17 07:03:08;;;;;;;;;;;18.20;74.10;;;;;;5077032;28;20007;-60
2021/11/17 07:05:36;;;;;;;;;;;18.20;74.10;;;;;;5078157;28;19924;-59
2021/11/17 07:08:04;;;;;;;;;;;18.20;74.10;;;;;;5077136;28;19935;-59
2021/11/17 07:10:32;;;;;;;;;;;18.20;74.10;;;;;;5076093;28;20400;-61
2021/11/17 07:12:59;;;;;;;;;;;18.20;74.10;;;;;;5077275;28;19925;-61
2021/11/17 07:15:28;;;;;;;;;;;18.20;74.30;;;;;;5077185;28;19924;-61
2021/11/17 07:17:56;;;;;;;;;;;18.20;74.10;;;;;;5059468;28;19940;-61
2021/11/17 07:20:23;;;;;;;;;;;18.20;74.10;;;;;;5076784;28;19924;-60
2021/11/17 07:22:50;;;;;;;;;;;18.20;74.00;;;;;;5076598;28;19931;-59
2021/11/17 07:25:19;;;;;;;;;;;18.20;74.00;;;;;;5076208;28;19928;-59
2021/11/17 07:27:46;;;;;;;;;;;18.20;74.00;;;;;;5076510;28;19925;-58
2021/11/17 07:30:15;;;;;;;;;;;18.20;74.00;;;;;;5076464;28;19924;-61
2021/11/17 07:32:42;;;;;;;;;;;18.20;74.00;;;;;;5077150;28;19931;-60
2021/11/17 07:35:10;;;;;;;;;;;18.20;74.00;;;;;;5076692;28;19924;-61
2021/11/17 07:37:37;;;;;;;;;;;18.20;73.90;;;;;;5076515;28;19931;-59
2021/11/17 07:40:05;;;;;;;;;;;18.20;73.90;;;;;;5075629;28;20387;-58
2021/11/17 07:42:32;;;;;;;;;;;18.20;73.90;;;;;;5076696;28;19931;-59
2021/11/17 07:45:00;;;;;;;;;;;18.20;73.90;;;;;;5076653;28;19990;-59
2021/11/17 07:47:27;;;;;;;;;;;18.20;73.90;;;;;;5059591;28;19970;-58
2021/11/17 07:49:54;;;;;;;;;;;18.20;73.90;;;;;;5077269;28;19931;-58
2021/11/17 07:52:21;;;;;;;;;;;18.20;73.90;;;;;;5076083;28;19924;-59
2021/11/17 07:54:48;;;;;;;;;;;18.30;73.90;;;;;;5058280;28;19928;-62
2021/11/17 07:57:17;;;;;;;;;;;18.30;73.90;;;;;;5074973;28;19928;-59
2021/11/17 07:59:44;;;;;;;;;;;18.30;73.90;;;;;;5075210;28;20295;-59
2021/11/17 08:02:12;;;;;;;;;;;18.30;73.90;;;;;;5075902;28;19931;-59
2021/11/17 08:04:41;;;;;;;;;;;18.30;73.70;;;;;;5075169;28;19970;-60
2021/11/17 08:07:14;;;;;;;;;;;18.20;68.30;;;;;;5071047;28;20387;-58
2021/11/17 08:09:42;;;;;;;;;;;18.20;65.60;;;;;;5074627;28;19924;-56
2021/11/17 08:12:10;;;;;;;;;;;18.20;67.90;;;;;;5057359;28;19964;-55
2021/11/17 08:14:37;;;;;;;;;;;18.10;71.20;;;;;;5074511;28;19928;-53
2021/11/17 08:17:05;;;;;;;;;;;18.20;72.10;;;;;;5075699;28;19975;-56
2021/11/17 08:19:34;;;;;;;;;;;18.20;71.90;;;;;;5075215;28;20054;-57
2021/11/17 08:22:07;;;;;;;;;;;18.10;71.40;;;;;;5075056;28;20011;-60
2021/11/17 08:24:37;;;;;;;;;;;18.20;71.00;;;;;;5075473;28;19925;-57
2021/11/17 08:27:08;;;;;;;;;;;18.20;70.30;;;;;;5066969;28;20376;-58
2021/11/17 08:29:35;;;;;;;;;;;18.20;69.50;;;;;;5075119;28;19932;-57
2021/11/17 08:32:02;;;;;;;;;;;18.20;69.00;;;;;;5075339;28;19955;-59
2021/11/17 08:34:30;;;;;;;;;;;18.20;68.70;;;;;;5075261;28;19924;-57
2021/11/17 08:36:57;;;;;;;;;;;18.20;68.70;;;;;;5076687;28;19939;-59
2021/11/17 08:39:25;;;;;;;;;;;18.20;68.70;;;;;;5066254;28;19928;-59
2021/11/17 08:41:52;;;;;;;;;;;18.30;68.80;;;;;;5084495;28;19924;-59
2021/11/17 08:44:20;;;;;;;;;;;18.30;68.90;;;;;;5075356;28;20294;-59
2021/11/17 08:46:51;;;;;;;;;;;18.30;68.90;;;;;;5074859;28;20311;-59
2021/11/17 08:49:19;;;;;;;;;;;18.30;68.90;;;;;;5074801;28;19948;-58
2021/11/17 08:51:47;;;;;;;;;;;18.30;69.70;;;;;;5075278;28;19924;-57
2021/11/17 08:54:15;;;;;;;;;;;18.30;69.00;;;;;;5053889;28;20019;-60
2021/11/17 08:56:42;;;;;;;;;;;18.30;69.10;;;;;;5060903;28;19924;-59
2021/11/17 08:59:10;;;;;;;;;;;18.40;69.30;;;;;;5054505;28;20406;-59
2021/11/17 09:01:37;;;;;;;;;;;18.40;69.30;;;;;;5070646;28;19924;-57
2021/11/17 09:04:07;;;;;;;;;;;18.40;69.40;;;;;;5054701;28;19935;-56
2021/11/17 09:06:35;;;;;;;;;;;18.40;69.50;;;;;;5055246;28;19935;-56
2021/11/17 09:09:06;;;;;;;;;;;18.40;69.60;;;;;;5064753;28;20334;-58
2021/11/17 09:11:37;;;;;;;;;;;18.40;69.70;;;;;;5056271;28;19936;-58
2021/11/17 09:14:05;;;;;;;;;;;18.40;69.80;;;;;;5074644;28;19929;-59
2021/11/17 09:16:33;;;;;;;;;;;18.50;70.00;;;;;;5074173;28;19978;-58
2021/11/17 09:19:02;;;;;;;;;;;18.40;69.90;;;;;;5074844;28;19969;-58
2021/11/17 09:21:32;;;;;;;;;;;18.50;70.10;;;;;;5073676;28;19970;-57
2021/11/17 09:24:00;;;;;;;;;;;18.40;70.10;;;;;;5073923;28;19930;-59
2021/11/17 09:26:28;;;;;;;;;;;18.50;70.20;;;;;;5073405;28;19924;-57
2021/11/17 09:28:56;;;;;;;;;;;18.50;70.30;;;;;;5072798;28;20456;-57
2021/11/17 09:31:24;;;;;;;;;;;18.50;70.40;;;;;;5055837;28;19928;-56
2021/11/17 09:33:51;;;;;;;;;;;18.50;70.40;;;;;;5074303;28;19924;-59
2021/11/17 09:36:20;;;;;;;;;;;18.50;70.50;;;;;;5073998;28;19972;-59
2021/11/17 09:38:51;;;;;;;;;;;18.50;70.60;;;;;;5073835;28;19924;-57
2021/11/17 09:41:21;;;;;;;;;;;18.50;70.70;;;;;;5081836;28;19924;-59
2021/11/17 09:43:50;;;;;;;;;;;18.50;70.80;;;;;;5065806;28;19925;-59
2021/11/17 09:46:23;;;;;;;;;;;18.50;70.80;;;;;;5036640;28;19925;-58
2021/11/17 09:48:52;;;;;;;;;;;18.50;70.90;;;;;;5054012;28;19981;-59
2021/11/17 09:51:22;;;;;;;;;;;18.50;71.00;;;;;;5064621;28;19924;-59
2021/11/17 09:53:52;;;;;;;;;;;18.50;71.00;;;;;;5073823;28;19925;-59
2021/11/17 09:56:22;;;;;;;;;;;18.50;71.10;;;;;;5073563;28;19924;-57
2021/11/17 09:58:55;;;;;;;;;;;18.50;71.10;;;;;;5072929;28;20295;-60
2021/11/17 10:01:27;;;;;;;;;;;18.50;71.20;;;;;;5073962;28;20011;-58
2021/11/17 10:04:12;;;;;;;;;;;18.50;71.30;;;;;;5074155;28;19993;-59
2021/11/17 10:15:03;;;;;;;;;;;18.50;71.60;;;;;;5074109;28;20290;-61
2021/11/17 10:17:33;;;;;;;;;;;18.50;71.70;;;;;;5073951;28;19929;-59
2021/11/17 10:20:11;;;;;;;;;;;18.50;71.80;;;;;;5073677;28;19925;-57
2021/11/17 10:22:39;;;;;;;;;;;18.50;71.90;;;;;;5055853;28;20388;-59
2021/11/17 10:25:08;;;;;;;;;;;18.50;71.90;;;;;;5073568;28;19933;-61
2021/11/17 10:27:36;;;;;;;;;;;18.50;72.00;;;;;;5071719;28;19934;-57
2021/11/17 10:30:05;;;;;;;;;;;18.50;72.00;;;;;;5073325;28;20399;-58
2021/11/17 10:32:32;;;;;;;;;;;18.50;72.00;;;;;;5073482;28;19925;-56
2021/11/17 10:35:06;;;;;;;;;;;18.50;72.00;;;;;;5073513;28;19924;-60
2021/11/17 10:37:44;;;;;;;;;;;18.50;72.10;;;;;;5073538;28;19931;-59
2021/11/17 10:40:22;;;;;;;;;;;18.50;72.10;;;;;;5055835;28;19924;-61
2021/11/17 10:43:01;;;;;;;;;;;18.50;72.10;;;;;;5072576;28;19973;-59
2021/11/17 10:45:37;;;;;;;;;;;18.50;72.10;;;;;;5055742;28;20391;-61
2021/11/17 10:48:15;;;;;;;;;;;18.50;72.10;;;;;;5056279;28;20402;-59
2021/11/17 10:50:42;;;;;;;;;;;18.50;72.10;;;;;;5073379;28;19930;-59
2021/11/17 10:53:24;;;;;;;;;;;18.50;72.10;;;;;;5073421;28;19924;-59
2021/11/17 10:55:53;;;;;;;;;;;18.50;72.20;;;;;;5055490;28;20015;-60
2021/11/17 10:58:22;;;;;;;;;;;18.50;72.10;;;;;;5073085;28;20011;-59
2021/11/17 11:00:52;;;;;;;;;;;18.50;72.10;;;;;;5073218;28;19925;-60
2021/11/17 11:03:21;;;;;;;;;;;18.50;72.10;;;;;;5073243;28;20305;-60
2021/11/17 11:05:53;;;;;;;;;;;18.50;72.10;;;;;;5073259;28;19932;-62
2021/11/17 11:08:20;;;;;;;;;;;18.50;72.20;;;;;;5073248;28;19925;-58
2021/11/17 11:10:57;;;;;;;;;;;18.50;72.20;;;;;;5073395;28;20030;-62
2021/11/17 11:13:31;;;;;;;;;;;18.50;72.10;;;;;;5072060;28;19931;-60
2021/11/17 11:16:00;;;;;;;;;;;18.50;72.10;;;;;;5055789;28;19924;-60
2021/11/17 11:18:33;;;;;;;;;;;18.50;72.10;;;;;;5073424;28;20401;-60
2021/11/17 11:21:00;;;;;;;;;;;18.50;72.00;;;;;;5073122;28;19924;-57
2021/11/17 11:23:29;;;;;;;;;;;18.50;72.70;;;;;;5073249;28;19929;-59
2021/11/17 11:25:57;;;;;;;;;;;18.50;72.10;;;;;;5073076;28;19931;-56
2021/11/17 11:28:24;;;;;;;;;;;18.50;72.70;;;;;;5072040;28;19932;-60
2021/11/17 11:31:03;;;;;;;;;;;18.60;72.10;;;;;;5073197;28;19968;-58
2021/11/17 11:33:33;;;;;;;;;;;18.50;71.90;;;;;;5073041;28;19925;-60
2021/11/17 11:36:12;;;;;;;;;;;18.50;72.00;;;;;;5072965;28;19925;-60
2021/11/17 11:38:39;;;;;;;;;;;18.50;72.00;;;;;;5074355;28;19925;-61
2021/11/17 11:41:06;;;;;;;;;;;18.50;72.00;;;;;;5076474;28;19928;-59
2021/11/17 11:43:34;;;;;;;;;;;18.50;72.10;;;;;;5075920;28;19931;-59
2021/11/17 11:46:21;;;;;;;;;;;18.50;72.20;;;;;;5058758;28;20392;-60
2021/11/17 11:48:57;;;;;;;;;;;18.50;72.10;;;;;;5058609;28;19925;-59
2021/11/17 11:51:33;;;;;;;;;;;18.50;72.20;;;;;;5077204;28;19924;-60
2021/11/17 11:54:12;;;;;;;;;;;18.50;72.20;;;;;;5076477;28;19924;-60
2021/11/17 11:56:59;;;;;;;;;;;18.50;72.20;;;;;;5076131;28;19931;-59
2021/11/17 11:59:28;;;;;;;;;;;18.50;73.00;;;;;;5044574;28;19924;-61
2021/11/17 12:02:08;;;;;;;;;;;18.50;72.30;;;;;;5076497;28;20287;-60
2021/11/17 12:04:47;;;;;;;;;;;18.40;72.20;;;;;;5076394;28;19924;-59
2021/11/17 12:07:17;;;;;;;;;;;18.50;72.30;;;;;;5076016;28;19928;-60
2021/11/17 12:09:56;;;;;;;;;;;18.50;72.30;;;;;;5075892;28;19970;-60
2021/11/17 12:12:27;;;;;;;;;;;18.50;72.30;;;;;;5076300;28;19931;-59
2021/11/17 12:15:11;;;;;;;;;;;18.50;72.30;;;;;;5075562;28;19924;-59
2021/11/17 12:17:39;;;;;;;;;;;18.50;72.30;;;;;;5075834;28;20375;-59
2021/11/17 12:20:21;;;;;;;;;;;18.50;72.20;;;;;;5076108;28;19974;-61
2021/11/17 12:22:51;;;;;;;;;;;18.50;72.30;;;;;;5075600;28;19955;-59
2021/11/17 12:25:20;;;;;;;;;;;18.50;72.20;;;;;;5077150;28;19924;-58
2021/11/17 12:27:48;;;;;;;;;;;18.50;72.20;;;;;;5076762;28;19925;-59
2021/11/17 12:30:28;;;;;;;;;;;18.50;72.30;;;;;;5074938;28;19924;-59
2021/11/17 12:32:58;;;;;;;;;;;18.50;72.30;;;;;;5075583;28;19929;-61
2021/11/17 12:35:25;;;;;;;;;;;18.50;72.30;;;;;;5075492;28;19924;-60
2021/11/17 12:37:55;;;;;;;;;;;18.50;72.30;;;;;;5075696;28;19925;-58
2021/11/17 12:40:39;;;;;;;;;;;18.50;72.40;;;;;;5075521;28;19924;-56
2021/11/17 12:43:08;;;;;;;;;;;18.50;72.40;;;;;;5075615;28;19925;-59
2021/11/17 12:45:38;;;;;;;;;;;18.50;72.50;;;;;;5074437;28;19936;-59
2021/11/17 12:48:10;;;;;;;;;;;18.50;72.50;;;;;;5075535;28;19986;-58
2021/11/17 12:50:49;;;;;;;;;;;18.50;72.50;;;;;;5074824;28;20399;-60
2021/11/17 12:53:20;;;;;;;;;;;18.50;72.50;;;;;;5075000;28;19936;-59
2021/11/17 12:55:47;;;;;;;;;;;18.50;72.50;;;;;;5075225;28;20276;-60
2021/11/17 12:58:26;;;;;;;;;;;18.40;72.50;;;;;;5075035;28;20015;-61
2021/11/17 13:01:14;;;;;;;;;;;18.50;72.60;;;;;;5074155;28;20379;-58
2021/11/17 13:03:47;;;;;;;;;;;18.50;72.60;;;;;;5075318;28;19971;-60
2021/11/17 13:06:28;;;;;;;;;;;18.40;72.50;;;;;;5074511;28;20337;-60
2021/11/17 13:09:10;;;;;;;;;;;18.40;72.50;;;;;;5075209;28;20314;-60
2021/11/17 13:11:55;;;;;;;;;;;18.40;72.50;;;;;;5075018;28;19928;-60
2021/11/17 13:14:22;;;;;;;;;;;18.40;72.50;;;;;;5073925;28;19925;-60
2021/11/17 13:16:49;;;;;;;;;;;18.50;72.60;;;;;;5058209;28;19929;-59
2021/11/17 13:19:37;;;;;;;;;;;18.50;72.60;;;;;;5074592;28;19925;-58
2021/11/17 13:22:21;;;;;;;;;;;18.40;72.50;;;;;;5074485;28;19932;-60
2021/11/17 13:24:49;;;;;;;;;;;18.50;72.60;;;;;;5056930;28;19925;-60
2021/11/17 13:27:19;;;;;;;;;;;18.40;72.50;;;;;;5074486;28;19924;-60
2021/11/17 13:30:12;;;;;;;;;;;18.40;72.50;;;;;;5073918;28;19928;-61
2021/11/17 13:32:40;;;;;;;;;;;18.40;72.60;;;;;;5074662;28;20292;-61
2021/11/17 13:35:23;;;;;;;;;;;18.40;72.60;;;;;;5074557;28;19924;-60
2021/11/17 13:37:51;;;;;;;;;;;18.40;72.60;;;;;;5074284;28;19978;-59
2021/11/17 13:40:20;;;;;;;;;;;18.40;72.60;;;;;;5074237;28;19931;-59
2021/11/17 13:42:47;;;;;;;;;;;18.40;72.60;;;;;;5074473;28;20292;-60
2021/11/17 13:45:20;;;;;;;;;;;18.40;72.60;;;;;;5073542;28;19924;-61
2021/11/17 13:47:48;;;;;;;;;;;18.40;72.60;;;;;;5074128;28;20007;-59
2021/11/17 13:50:16;;;;;;;;;;;18.40;72.70;;;;;;5074006;28;19931;-58
2021/11/17 13:52:44;;;;;;;;;;;18.40;72.70;;;;;;5073884;28;19925;-59
2021/11/17 13:55:14;;;;;;;;;;;18.40;72.70;;;;;;5073893;28;19974;-59
2021/11/17 13:57:42;;;;;;;;;;;18.40;72.70;;;;;;5074267;28;19924;-59
2021/11/17 14:00:11;;;;;;;;;;;18.40;72.70;;;;;;5072790;28;19925;-57
2021/11/17 14:02:39;;;;;;;;;;;18.40;72.70;;;;;;5073335;28;19924;-61
2021/11/17 14:05:06;;;;;;;;;;;18.40;72.80;;;;;;5056578;28;20024;-60
2021/11/17 14:07:34;;;;;;;;;;;18.40;72.80;;;;;;5073860;28;20441;-59
2021/11/17 14:10:03;;;;;;;;;;;18.40;72.80;;;;;;5073749;28;20437;-58
2021/11/17 14:12:30;;;;;;;;;;;18.40;72.80;;;;;;5074133;28;19947;-59
2021/11/17 14:14:57;;;;;;;;;;;18.40;72.80;;;;;;5070639;28;20392;-59
2021/11/17 14:17:24;;;;;;;;;;;18.40;72.80;;;;;;5073563;28;19939;-60
2021/11/17 14:19:52;;;;;;;;;;;18.40;72.90;;;;;;5073923;28;19924;-61
2021/11/17 14:22:19;;;;;;;;;;;18.30;72.80;;;;;;5074158;28;19967;-58
2021/11/17 14:24:46;;;;;;;;;;;18.30;72.80;;;;;;5073613;28;20374;-58
2021/11/17 14:27:14;;;;;;;;;;;18.40;72.90;;;;;;5073531;28;20018;-59
2021/11/17 14:29:46;;;;;;;;;;;18.40;72.90;;;;;;5072358;28;19928;-55
2021/11/17 14:32:16;;;;;;;;;;;18.40;72.90;;;;;;5073906;28;20330;-59
2021/11/17 14:34:43;;;;;;;;;;;18.40;73.00;;;;;;5055885;28;20285;-59
2021/11/17 14:37:10;;;;;;;;;;;18.30;72.90;;;;;;5073547;28;20399;-61
2021/11/17 14:39:39;;;;;;;;;;;18.40;73.00;;;;;;5073779;28;19924;-59
2021/11/17 14:42:07;;;;;;;;;;;18.40;73.00;;;;;;5073707;28;19934;-60
2021/11/17 14:44:34;;;;;;;;;;;18.30;73.00;;;;;;5073248;28;19925;-59
2021/11/17 14:47:02;;;;;;;;;;;18.30;72.90;;;;;;5073227;28;19924;-59
2021/11/17 14:49:31;;;;;;;;;;;18.30;73.00;;;;;;5055736;28;20296;-59
2021/11/17 14:52:03;;;;;;;;;;;18.30;73.00;;;;;;5073638;28;20015;-61
2021/11/17 14:54:32;;;;;;;;;;;18.30;73.10;;;;;;5073237;28;19925;-59
2021/11/17 14:57:00;;;;;;;;;;;18.30;73.00;;;;;;5073303;28;19970;-59
2021/11/17 14:59:27;;;;;;;;;;;18.30;73.10;;;;;;5073535;28;19932;-60
2021/11/17 15:01:54;;;;;;;;;;;18.30;73.10;;;;;;5072832;28;19956;-60
2021/11/17 15:04:22;;;;;;;;;;;18.30;73.10;;;;;;5055634;28;19924;-59
2021/11/17 15:06:50;;;;;;;;;;;18.30;73.10;;;;;;5073450;28;19925;-60
2021/11/17 15:09:19;;;;;;;;;;;18.30;73.20;;;;;;5073254;28;19970;-58
2021/11/17 15:11:46;;;;;;;;;;;18.30;73.20;;;;;;5074311;28;19950;-59
2021/11/17 15:14:14;;;;;;;;;;;18.30;73.20;;;;;;5075922;28;19924;-59
2021/11/17 15:16:42;;;;;;;;;;;18.30;73.20;;;;;;5058090;28;19925;-59
2021/11/17 15:19:09;;;;;;;;;;;18.30;73.20;;;;;;5077508;28;19982;-61
2021/11/17 15:21:36;;;;;;;;;;;18.30;73.20;;;;;;5076872;28;20398;-60
2021/11/17 15:24:04;;;;;;;;;;;18.30;73.20;;;;;;5076686;28;19982;-61
2021/11/17 15:26:31;;;;;;;;;;;18.30;73.30;;;;;;5077924;28;19932;-61
2021/11/17 15:29:00;;;;;;;;;;;18.30;73.30;;;;;;5076621;28;19974;-60
2021/11/17 15:31:29;;;;;;;;;;;18.30;73.30;;;;;;5076088;28;19928;-60
2021/11/17 15:33:57;;;;;;;;;;;18.30;73.30;;;;;;5076661;28;19929;-61
2021/11/17 15:36:25;;;;;;;;;;;18.30;73.30;;;;;;5076918;28;19924;-58
2021/11/17 15:38:52;;;;;;;;;;;18.30;73.30;;;;;;5076891;28;20023;-60
2021/11/17 15:41:22;;;;;;;;;;;18.30;73.30;;;;;;5076545;28;20361;-59
2021/11/17 15:43:50;;;;;;;;;;;18.30;73.40;;;;;;5076426;28;19924;-61
2021/11/17 15:46:17;;;;;;;;;;;18.30;73.30;;;;;;5075732;28;19928;-59
2021/11/17 15:48:45;;;;;;;;;;;18.30;73.40;;;;;;5076436;28;20395;-61
2021/11/17 15:51:16;;;;;;;;;;;18.30;73.40;;;;;;5076269;28;19995;-60
2021/11/17 15:53:45;;;;;;;;;;;18.30;73.40;;;;;;5076176;28;19925;-61
2021/11/17 15:56:12;;;;;;;;;;;18.30;73.40;;;;;;5076185;28;19924;-59
2021/11/17 15:58:39;;;;;;;;;;;18.30;73.40;;;;;;5076528;28;19928;-61
2021/11/17 16:01:09;;;;;;;;;;;18.30;73.40;;;;;;5075243;28;19967;-60
2021/11/17 16:03:36;;;;;;;;;;;18.20;73.40;;;;;;5076114;28;19936;-58
2021/11/17 16:06:04;;;;;;;;;;;18.30;73.40;;;;;;5076086;28;19935;-59
2021/11/17 16:08:32;;;;;;;;;;;18.30;73.50;;;;;;5076041;28;19931;-59
2021/11/17 16:10:59;;;;;;;;;;;18.30;73.50;;;;;;5076259;28;20287;-58
2021/11/17 16:13:26;;;;;;;;;;;18.20;73.40;;;;;;5076735;28;20387;-60
2021/11/17 16:15:53;;;;;;;;;;;18.30;73.50;;;;;;5057679;28;19937;-61
2021/11/17 16:18:20;;;;;;;;;;;18.30;73.50;;;;;;5075890;28;19928;-57
2021/11/17 16:20:58;;;;;;;;;;;18.20;73.40;;;;;;5076115;28;19925;-60
2021/11/17 16:26:19;;;;;;;;;;;18.30;73.50;;;;;;5074792;28;20372;-58
2021/11/17 16:28:48;;;;;;;;;;;18.30;73.50;;;;;;5075915;28;20011;-59
2021/11/17 16:31:17;;;;;;;;;;;18.30;73.50;;;;;;5075023;28;19938;-59
2021/11/17 16:33:44;;;;;;;;;;;18.30;73.50;;;;;;5075867;28;19931;-60
2021/11/17 16:36:11;;;;;;;;;;;18.20;73.50;;;;;;5057793;28;19925;-59
2021/11/17 16:38:40;;;;;;;;;;;18.30;73.50;;;;;;5075797;28;19928;-60
2021/11/17 16:41:07;;;;;;;;;;;18.20;73.50;;;;;;5075748;28;19932;-58
2021/11/17 16:43:36;;;;;;;;;;;18.20;73.70;;;;;;5075346;28;20449;-58
2021/11/17 16:46:04;;;;;;;;;;;18.20;73.50;;;;;;5074652;28;19928;-61
2021/11/17 16:48:31;;;;;;;;;;;18.30;73.60;;;;;;5075308;28;19924;-59
2021/11/17 16:50:58;;;;;;;;;;;18.20;73.50;;;;;;5075182;28;19924;-58
2021/11/17 16:53:26;;;;;;;;;;;18.20;73.50;;;;;;5075027;28;19924;-56
2021/11/17 16:55:53;;;;;;;;;;;18.30;73.60;;;;;;5057320;28;19924;-59
2021/11/17 16:58:22;;;;;;;;;;;18.20;73.50;;;;;;5074952;28;19925;-59
2021/11/17 17:00:52;;;;;;;;;;;18.30;73.60;;;;;;5075416;28;19925;-57
2021/11/17 17:03:21;;;;;;;;;;;18.20;73.50;;;;;;5075244;28;19924;-60
2021/11/17 17:05:50;;;;;;;;;;;18.20;73.50;;;;;;5074894;28;19978;-59
2021/11/17 17:08:17;;;;;;;;;;;18.20;73.50;;;;;;5074851;28;20453;-57
2021/11/17 17:10:44;;;;;;;;;;;18.30;73.70;;;;;;5074986;28;20268;-59
2021/11/17 17:13:16;;;;;;;;;;;18.20;73.60;;;;;;5057681;28;19924;-60
2021/11/17 17:15:43;;;;;;;;;;;18.20;73.50;;;;;;5074705;28;19970;-57
2021/11/17 17:18:14;;;;;;;;;;;18.20;73.50;;;;;;5073786;28;19955;-56